Time;durP1;ratioP1;P1;durP2;ratioP2;P2;SDS_P1;SDS_P2;PMS_P1;PMS_P2;Temp;Humidity;BMP_temperature;BMP_pressure;BME280_temperature;BME280_humidity;BME280_pressure;Samples;Min_cycle;Max_cycle;Signal;HPM_P1;HPM_P2
2023/03/29 00:02:28;;;;;;;0.20;0.20;;;5.40;99.90;;;;;;4835156;29;20133;-75
2023/03/29 00:08:38;;;;;;;0.10;0.10;;;5.40;99.90;;;;;;4800996;29;20054;-75
2023/03/29 00:11:21;;;;;;;0.15;0.15;;;5.40;99.90;;;;;;4787585;29;20563;-76
2023/03/29 00:14:51;;;;;;;0.20;0.20;;;5.50;99.90;;;;;;4800462;29;20544;-76
2023/03/29 00:17:23;;;;;;;0.20;0.20;;;5.40;99.90;;;;;;4785337;29;20054;-77
2023/03/29 00:20:22;;;;;;;0.10;0.10;;;5.40;99.90;;;;;;4798291;29;20189;-76
2023/03/29 00:23:02;;;;;;;0.20;0.20;;;5.40;99.90;;;;;;4788873;29;20051;-76
2023/03/29 00:25:44;;;;;;;0.10;0.10;;;6.70;99.90;;;;;;4802801;29;20422;-76
2023/03/29 00:28:15;;;;;;;0.20;0.20;;;5.40;99.90;;;;;;4791634;29;20078;-76
2023/03/29 00:30:44;;;;;;;0.20;0.20;;;;;;;;;;4791806;29;20748;-76
2023/03/29 00:33:13;;;;;;;0.20;0.20;;;5.40;99.90;;;;;;4785804;29;20059;-76
2023/03/29 00:35:57;;;;;;;0.10;0.10;;;6.20;99.90;;;;;;4768827;30;20493;-76
2023/03/29 00:38:33;;;;;;;0.20;0.20;;;6.50;99.90;;;;;;4810894;29;20086;-76
2023/03/29 00:41:11;;;;;;;0.20;0.20;;;5.40;99.90;;;;;;4845584;29;20041;-76
2023/03/29 00:43:57;;;;;;;0.15;0.15;;;5.40;99.90;;;;;;4821949;29;20046;-76
2023/03/29 00:46:24;;;;;;;0.20;0.20;;;5.40;99.90;;;;;;4823945;29;20046;-76
2023/03/29 00:48:53;;;;;;;0.20;0.20;;;5.30;99.90;;;;;;4820612;29;20157;-76
2023/03/29 00:51:21;;;;;;;0.20;0.20;;;5.40;99.90;;;;;;4839074;29;20038;-77
2023/03/29 00:53:54;;;;;;;0.20;0.20;;;5.90;99.90;;;;;;4839432;29;20128;-77
2023/03/29 01:10:48;;;;;;;0.20;0.20;;;6.10;99.90;;;;;;4858663;29;20052;-77
2023/03/29 01:14:45;;;;;;;0.20;0.20;;;5.40;99.90;;;;;;4797938;29;20191;-76
2023/03/29 01:17:20;;;;;;;0.20;0.20;;;6.10;99.90;;;;;;4719734;30;20104;-76
2023/03/29 01:23:46;;;;;;;;;;;;;;;;;;;;;
2023/03/29 01:26:52;;;;;;;0.20;0.20;;;5.40;99.90;;;;;;4874123;29;20097;-76
2023/03/29 01:30:02;;;;;;;0.20;0.20;;;5.50;99.90;;;;;;4875346;29;20033;-75
2023/03/29 01:33:20;;;;;;;0.20;0.20;;;5.40;99.90;;;;;;4850602;29;20065;-77
2023/03/29 01:36:42;;;;;;;0.10;0.10;;;5.40;99.90;;;;;;4882631;29;20406;-76
2023/03/29 01:39:39;;;;;;;0.20;0.20;;;6.50;99.90;;;;;;4845939;29;20053;-75
2023/03/29 01:43:01;;;;;;;0.20;0.20;;;4.50;99.90;;;;;;4852589;29;20052;-77
2023/03/29 01:46:24;;;;;;;;;;;;;;;;;;;;;
2023/03/29 01:49:48;;;;;;;0.20;0.20;;;4.70;99.90;;;;;;4862555;29;20069;-76
2023/03/29 01:52:53;;;;;;;0.20;0.20;;;5.50;99.90;;;;;;4865195;23;20056;-77
2023/03/29 01:56:04;;;;;;;0.20;0.20;;;5.50;99.90;;;;;;4794573;29;20057;-76
2023/03/29 01:59:17;;;;;;;;;;;;;;;;;;;;;
2023/03/29 02:02:15;;;;;;;0.20;0.20;;;6.70;99.90;;;;;;4848636;29;20087;-76
2023/03/29 02:04:56;;;;;;;0.20;0.20;;;4.90;99.90;;;;;;4808723;29;20043;-76
2023/03/29 02:07:30;;;;;;;0.20;0.20;;;5.50;99.90;;;;;;4844862;29;20093;-76
2023/03/29 02:09:57;;;;;;;0.20;0.20;;;5.50;99.90;;;;;;4831826;29;20076;-76
2023/03/29 02:12:23;;;;;;;0.20;0.20;;;;;;;;;;4837023;29;20054;-76
2023/03/29 02:14:49;;;;;;;0.15;0.15;;;5.50;99.90;;;;;;4817755;29;20057;-76
2023/03/29 02:17:24;;;;;;;0.17;0.17;;;5.50;99.90;;;;;;4839114;29;20062;-76
2023/03/29 02:20:19;;;;;;;0.10;0.10;;;5.40;99.90;;;;;;4823183;29;20050;-76
2023/03/29 02:22:45;;;;;;;0.17;0.17;;;;;;;;;;4840085;29;20062;-76
2023/03/29 02:25:11;;;;;;;0.20;0.20;;;5.40;99.90;;;;;;4832997;29;20061;-77
2023/03/29 02:27:38;;;;;;;0.15;0.15;;;5.50;99.90;;;;;;4809061;29;20050;-77
2023/03/29 02:30:06;;;;;;;0.13;0.13;;;5.50;99.90;;;;;;4818053;29;20128;-77
2023/03/29 02:32:51;;;;;;;0.20;0.20;;;5.50;99.90;;;;;;4839167;29;20044;-76
2023/03/29 02:35:33;;;;;;;0.20;0.20;;;5.40;99.90;;;;;;4835387;29;20049;-77
2023/03/29 02:38:05;;;;;;;0.20;0.20;;;5.50;99.90;;;;;;4819607;29;20058;-76
2023/03/29 02:40:32;;;;;;;0.20;0.20;;;5.40;99.90;;;;;;4819018;29;20064;-76
2023/03/29 02:43:00;;;;;;;0.20;0.20;;;5.50;99.90;;;;;;4831111;29;20515;-77
2023/03/29 02:45:27;;;;;;;0.13;0.13;;;5.60;99.90;;;;;;4829965;29;20042;-77
2023/03/29 02:48:03;;;;;;;0.20;0.20;;;5.50;99.90;;;;;;4830287;23;20061;-77
2023/03/29 02:57:38;;;;;;;0.10;0.10;;;5.70;99.90;;;;;;4790663;29;20085;-76
2023/03/29 03:00:28;;;;;;;0.10;0.10;;;5.50;99.90;;;;;;4801262;29;20065;-77
2023/03/29 03:03:06;;;;;;;0.20;0.20;;;5.50;99.90;;;;;;4795348;29;20110;-77
2023/03/29 03:05:42;;;;;;;0.20;0.20;;;5.50;99.90;;;;;;4785782;29;20535;-76
2023/03/29 03:08:12;;;;;;;0.10;0.10;;;3.40;99.90;;;;;;4811288;29;20066;-76
2023/03/29 03:10:39;;;;;;;0.20;0.20;;;5.60;99.90;;;;;;4795965;29;20050;-77
2023/03/29 03:13:05;;;;;;;0.20;0.20;;;6.30;99.90;;;;;;4804377;29;20192;-76
2023/03/29 03:15:34;;;;;;;0.20;0.20;;;5.70;99.90;;;;;;4787648;29;20096;-76
2023/03/29 03:18:03;;;;;;;0.10;0.10;;;6.50;99.90;;;;;;4786142;29;20082;-76
2023/03/29 03:21:10;;;;;;;0.20;0.20;;;5.50;99.90;;;;;;4801629;29;20828;-77
2023/03/29 03:23:36;;;;;;;0.20;0.20;;;4.90;99.90;;;;;;4792996;29;20500;-76
2023/03/29 03:26:28;;;;;;;0.10;0.10;;;6.60;99.90;;;;;;4802922;29;20220;-76
2023/03/29 03:29:30;;;;;;;0.20;0.20;;;5.50;99.90;;;;;;4810404;29;20069;-76
2023/03/29 03:32:12;;;;;;;0.10;0.10;;;;;;;;;;4842112;29;20067;-77
2023/03/29 03:34:41;;;;;;;0.20;0.20;;;5.50;99.90;;;;;;4853671;29;20053;-77
2023/03/29 03:37:14;;;;;;;0.10;0.10;;;6.70;99.90;;;;;;4813139;29;20050;-77
2023/03/29 03:40:12;;;;;;;0.17;0.17;;;5.50;99.90;;;;;;4855880;29;20089;-77
2023/03/29 03:43:08;;;;;;;0.10;0.10;;;5.50;99.90;;;;;;4820972;29;20129;-77
2023/03/29 03:45:37;;;;;;;0.10;0.10;;;5.60;99.90;;;;;;4850757;29;20029;-77
2023/03/29 03:48:16;;;;;;;0.20;0.20;;;6.00;99.90;;;;;;4845093;29;20054;-77
2023/03/29 03:51:02;;;;;;;0.20;0.20;;;5.60;99.90;;;;;;4831518;29;20057;-76
2023/03/29 03:53:37;;;;;;;0.20;0.20;;;5.60;99.90;;;;;;4859196;29;20045;-77
2023/03/29 03:56:07;;;;;;;0.20;0.20;;;5.40;99.90;;;;;;4839863;29;20066;-76
2023/03/29 03:58:57;;;;;;;0.20;0.20;;;5.60;99.90;;;;;;4837184;29;20145;-77
2023/03/29 04:01:34;;;;;;;0.20;0.20;;;5.60;99.90;;;;;;4847774;29;20060;-76
2023/03/29 04:04:43;;;;;;;;;;;;;;;;;;;;;
2023/03/29 04:07:21;;;;;;;0.20;0.20;;;5.60;99.90;;;;;;4770549;30;20059;-77
2023/03/29 04:10:43;;;;;;;0.10;0.10;;;6.00;99.90;;;;;;4823813;29;20086;-78
2023/03/29 04:13:39;;;;;;;0.20;0.20;;;4.90;99.90;;;;;;4883721;23;20046;-76
2023/03/29 04:16:05;;;;;;;0.20;0.20;;;5.50;99.90;;;;;;4859813;29;20091;-75
2023/03/29 04:18:32;;;;;;;0.10;0.10;;;;;;;;;;4842145;29;20482;-75
2023/03/29 04:21:32;;;;;;;0.20;0.20;;;5.60;99.90;;;;;;4851242;23;20410;-76
2023/03/29 04:24:46;;;;;;;0.20;0.20;;;5.70;99.90;;;;;;4818994;29;20061;-75
2023/03/29 04:27:16;;;;;;;0.20;0.20;;;;;;;;;;4846675;29;20057;-76
2023/03/29 04:29:43;;;;;;;0.20;0.20;;;5.60;99.90;;;;;;4847221;29;20502;-76
2023/03/29 04:32:10;;;;;;;0.10;0.10;;;6.70;99.90;;;;;;4840201;29;20053;-76
2023/03/29 04:34:39;;;;;;;0.10;0.10;;;5.70;99.90;;;;;;4836235;29;20113;-76
2023/03/29 04:37:09;;;;;;;0.10;0.10;;;6.40;99.90;;;;;;4840572;29;20132;-76
2023/03/29 04:39:53;;;;;;;0.17;0.17;;;5.80;99.90;;;;;;4858128;29;20088;-76
2023/03/29 04:42:22;;;;;;;0.13;0.13;;;5.60;99.90;;;;;;4867304;29;20070;-75
2023/03/29 04:45:06;;;;;;;0.20;0.20;;;5.60;99.90;;;;;;4851894;29;20316;-76
2023/03/29 04:47:35;;;;;;;0.10;0.10;;;5.60;99.90;;;;;;4852577;29;20332;-76
2023/03/29 04:50:05;;;;;;;0.20;0.20;;;5.30;99.90;;;;;;4844013;29;20087;-77
2023/03/29 04:52:32;;;;;;;0.20;0.20;;;5.70;99.90;;;;;;4862241;29;20520;-76
2023/03/29 04:55:01;;;;;;;0.20;0.20;;;5.60;99.90;;;;;;4859074;29;20067;-76
2023/03/29 04:57:28;;;;;;;0.20;0.20;;;5.70;99.90;;;;;;4845292;29;20048;-76
2023/03/29 04:59:55;;;;;;;0.10;0.10;;;5.70;99.90;;;;;;4841893;29;20060;-76
2023/03/29 05:02:21;;;;;;;0.20;0.20;;;;;;;;;;4854023;29;20157;-76
2023/03/29 05:04:47;;;;;;;0.10;0.10;;;5.70;99.90;;;;;;4845686;29;20057;-76
2023/03/29 05:07:14;;;;;;;0.10;0.10;;;5.70;99.90;;;;;;4864143;29;20101;-76
2023/03/29 05:09:42;;;;;;;0.20;0.20;;;5.70;99.90;;;;;;4871437;29;20052;-77
2023/03/29 05:12:08;;;;;;;0.20;0.20;;;5.70;99.90;;;;;;4864877;29;20057;-75
2023/03/29 05:14:33;;;;;;;0.30;0.30;;;5.80;99.90;;;;;;4870920;29;20063;-77
2023/03/29 05:17:00;;;;;;;0.10;0.10;;;5.80;99.90;;;;;;4874139;29;20045;-75
2023/03/29 05:19:26;;;;;;;0.20;0.20;;;5.80;99.90;;;;;;4867150;29;20185;-76
2023/03/29 05:21:55;;;;;;;0.20;0.20;;;5.80;99.90;;;;;;4861431;29;20068;-75
2023/03/29 05:24:21;;;;;;;0.10;0.10;;;5.60;99.90;;;;;;4856483;29;20084;-75
2023/03/29 05:26:50;;;;;;;0.17;0.17;;;5.80;99.90;;;;;;4840676;29;20092;-76
2023/03/29 05:29:16;;;;;;;0.10;0.10;;;5.80;99.90;;;;;;4841674;29;20052;-76
2023/03/29 05:31:42;;;;;;;0.10;0.10;;;5.80;99.90;;;;;;4845846;29;20511;-76
2023/03/29 05:34:08;;;;;;;0.13;0.13;;;5.90;99.90;;;;;;4857679;29;20045;-76
2023/03/29 05:36:33;;;;;;;0.10;0.10;;;5.90;99.90;;;;;;4840285;29;20167;-76
2023/03/29 05:39:00;;;;;;;0.10;0.10;;;5.90;99.90;;;;;;4840674;29;20042;-77
2023/03/29 05:41:29;;;;;;;0.13;0.13;;;5.90;99.90;;;;;;4856363;29;20124;-76
2023/03/29 05:43:55;;;;;;;0.20;0.20;;;5.90;99.90;;;;;;4853883;29;20497;-76
2023/03/29 05:46:21;;;;;;;0.20;0.20;;;5.90;99.90;;;;;;4841286;29;20131;-77
2023/03/29 05:48:46;;;;;;;0.20;0.20;;;5.90;99.90;;;;;;4845590;29;20128;-76
2023/03/29 05:51:12;;;;;;;0.10;0.10;;;5.90;99.90;;;;;;4881432;29;20039;-76
2023/03/29 05:53:38;;;;;;;0.20;0.20;;;5.90;99.90;;;;;;4877620;29;20045;-76
2023/03/29 05:56:04;;;;;;;0.20;0.20;;;5.90;99.90;;;;;;4841511;29;20097;-76
2023/03/29 05:58:29;;;;;;;0.17;0.17;;;6.00;99.90;;;;;;4854970;29;20135;-77
2023/03/29 06:00:56;;;;;;;0.20;0.20;;;6.00;99.90;;;;;;4870411;29;20454;-77
2023/03/29 06:03:26;;;;;;;0.17;0.17;;;6.00;99.90;;;;;;4856734;29;20044;-76
2023/03/29 06:06:05;;;;;;;0.20;0.20;;;6.10;99.90;;;;;;4861227;29;20048;-77
2023/03/29 06:08:32;;;;;;;0.20;0.20;;;6.00;99.90;;;;;;4840300;29;20090;-76
2023/03/29 06:11:04;;;;;;;0.20;0.20;;;6.10;99.90;;;;;;4855147;29;20046;-76
2023/03/29 06:13:32;;;;;;;0.20;0.20;;;6.10;99.90;;;;;;4860735;29;20048;-77
2023/03/29 06:15:58;;;;;;;0.20;0.20;;;6.50;99.90;;;;;;4856300;29;20185;-77
2023/03/29 06:18:24;;;;;;;0.20;0.20;;;6.10;99.90;;;;;;4862563;29;20533;-77
2023/03/29 06:20:51;;;;;;;0.15;0.15;;;;;;;;;;4869583;29;20116;-77
2023/03/29 06:23:23;;;;;;;0.20;0.20;;;6.10;99.90;;;;;;4854004;29;20093;-77
2023/03/29 06:25:50;;;;;;;0.20;0.20;;;6.10;99.90;;;;;;4840857;29;20196;-75
2023/03/29 06:28:19;;;;;;;0.20;0.20;;;6.10;99.90;;;;;;4856410;29;20197;-75
2023/03/29 06:30:44;;;;;;;0.20;0.20;;;6.20;99.90;;;;;;4855158;29;20120;-76
2023/03/29 06:33:11;;;;;;;0.10;0.10;;;6.20;99.90;;;;;;4839940;29;20527;-76
2023/03/29 06:35:41;;;;;;;0.20;0.20;;;6.20;99.90;;;;;;4838530;29;20049;-74
2023/03/29 06:38:07;;;;;;;0.20;0.20;;;6.30;99.90;;;;;;4839883;29;20394;-75
2023/03/29 06:40:33;;;;;;;0.20;0.20;;;6.30;99.90;;;;;;4855502;29;20060;-75
2023/03/29 06:42:58;;;;;;;0.20;0.20;;;6.30;99.90;;;;;;4858717;29;20041;-76
2023/03/29 06:45:26;;;;;;;0.10;0.10;;;6.30;99.90;;;;;;4849635;29;20410;-74
2023/03/29 06:47:52;;;;;;;0.20;0.20;;;6.40;99.90;;;;;;4858582;29;20048;-74
2023/03/29 06:50:18;;;;;;;0.20;0.20;;;6.40;99.90;;;;;;4854495;29;20390;-74
2023/03/29 06:52:45;;;;;;;0.10;0.10;;;6.40;99.90;;;;;;4857387;29;20550;-74
2023/03/29 06:55:11;;;;;;;0.20;0.20;;;6.40;99.90;;;;;;4864467;29;20037;-74
2023/03/29 06:57:38;;;;;;;0.13;0.13;;;6.50;99.90;;;;;;4843868;29;20045;-75
2023/03/29 07:02:51;;;;;;;0.20;0.20;;;6.50;99.90;;;;;;4859504;29;20045;-74
2023/03/29 07:05:20;;;;;;;0.20;0.20;;;6.60;99.90;;;;;;4858813;29;20064;-75
2023/03/29 07:07:53;;;;;;;0.10;0.10;;;7.00;99.90;;;;;;4841962;29;20057;-75
2023/03/29 07:10:21;;;;;;;0.10;0.10;;;6.80;99.90;;;;;;4841760;29;20046;-75
2023/03/29 07:12:48;;;;;;;0.20;0.20;;;6.70;99.90;;;;;;4859127;29;20124;-75
2023/03/29 07:15:14;;;;;;;0.10;0.10;;;6.80;99.90;;;;;;4860699;29;20041;-75
2023/03/29 07:17:43;;;;;;;0.10;0.10;;;6.80;99.90;;;;;;4857889;29;20410;-74
2023/03/29 07:20:13;;;;;;;0.10;0.10;;;6.90;99.90;;;;;;4843825;29;20053;-74
2023/03/29 07:22:40;;;;;;;0.20;0.20;;;7.00;99.90;;;;;;4858931;29;20037;-74
2023/03/29 07:25:15;;;;;;;0.10;0.10;;;7.00;99.90;;;;;;4843851;29;20082;-73
2023/03/29 07:27:41;;;;;;;0.10;0.10;;;7.10;99.90;;;;;;4878334;23;20063;-74
2023/03/29 07:30:26;;;;;;;0.20;0.20;;;6.30;99.90;;;;;;4865381;29;20422;-73
2023/03/29 07:32:57;;;;;;;0.17;0.17;;;7.10;99.90;;;;;;4837961;29;20133;-74
2023/03/29 07:35:31;;;;;;;0.20;0.20;;;7.20;99.90;;;;;;4858287;29;20053;-75
2023/03/29 07:37:57;;;;;;;0.10;0.10;;;8.20;99.90;;;;;;4859733;29;20059;-74
2023/03/29 07:40:30;;;;;;;0.20;0.20;;;7.30;99.90;;;;;;4856162;29;20049;-74
2023/03/29 07:42:56;;;;;;;0.10;0.10;;;7.40;99.90;;;;;;4841312;29;20061;-73
2023/03/29 07:45:34;;;;;;;0.20;0.20;;;7.30;99.90;;;;;;4842585;29;20550;-74
2023/03/29 07:48:06;;;;;;;0.20;0.20;;;7.40;99.90;;;;;;4842805;29;20037;-75
2023/03/29 07:50:31;;;;;;;0.20;0.20;;;7.40;99.90;;;;;;4835834;29;20038;-74
2023/03/29 07:52:59;;;;;;;0.10;0.10;;;7.40;99.90;;;;;;4841892;29;20051;-74
2023/03/29 07:55:33;;;;;;;0.15;0.15;;;7.40;99.90;;;;;;4842268;29;20124;-74
2023/03/29 07:58:13;;;;;;;0.10;0.10;;;7.40;99.90;;;;;;4855350;29;20046;-74
2023/03/29 08:00:40;;;;;;;0.13;0.13;;;7.50;99.90;;;;;;4851421;29;20092;-74
2023/03/29 08:03:11;;;;;;;0.20;0.20;;;7.30;99.90;;;;;;4854584;29;20048;-73
2023/03/29 08:05:50;;;;;;;0.20;0.20;;;7.60;99.90;;;;;;4867336;29;20058;-74
2023/03/29 08:10:43;;;;;;;0.10;0.10;;;7.60;99.90;;;;;;4862511;23;20088;-75
2023/03/29 08:13:10;;;;;;;0.10;0.10;;;7.70;99.90;;;;;;4831022;29;20534;-75
2023/03/29 08:15:38;;;;;;;0.10;0.10;;;7.70;99.90;;;;;;4858694;29;20102;-78
2023/03/29 08:18:07;;;;;;;0.20;0.20;;;7.80;99.90;;;;;;4858790;29;20100;-75
2023/03/29 08:20:32;;;;;;;0.10;0.10;;;7.80;99.90;;;;;;4843001;29;20447;-75
2023/03/29 08:22:58;;;;;;;0.10;0.10;;;8.10;99.90;;;;;;4841564;29;20061;-75
2023/03/29 08:25:36;;;;;;;0.20;0.20;;;7.90;99.90;;;;;;4853462;23;20457;-74
2023/03/29 08:28:05;;;;;;;0.10;0.10;;;8.00;99.90;;;;;;4855975;29;20574;-75
2023/03/29 08:30:30;;;;;;;0.10;0.10;;;8.00;99.90;;;;;;4855332;29;20045;-74
2023/03/29 08:33:02;;;;;;;0.20;0.20;;;8.10;99.90;;;;;;4858991;29;20454;-75
2023/03/29 08:35:27;;;;;;;0.10;0.10;;;8.10;99.90;;;;;;4860449;29;20109;-74
2023/03/29 08:37:53;;;;;;;0.10;0.10;;;7.90;99.90;;;;;;4877170;29;20065;-75
2023/03/29 08:40:23;;;;;;;0.10;0.10;;;8.20;99.90;;;;;;4877342;29;20348;-74
2023/03/29 08:43:10;;;;;;;0.10;0.10;;;8.30;99.90;;;;;;4866284;29;20045;-74
2023/03/29 08:45:58;;;;;;;0.20;0.20;;;8.40;99.90;;;;;;4846980;29;20073;-75
2023/03/29 08:48:44;;;;;;;0.10;0.10;;;8.50;99.90;;;;;;4878901;29;20085;-74
2023/03/29 08:51:35;;;;;;;0.10;0.10;;;8.50;99.90;;;;;;4849685;29;20422;-74
2023/03/29 08:54:20;;;;;;;0.15;0.15;;;8.60;99.90;;;;;;4859780;29;20402;-73
2023/03/29 08:57:02;;;;;;;0.10;0.10;;;8.60;99.90;;;;;;4875560;29;20092;-74
2023/03/29 08:59:34;;;;;;;0.10;0.10;;;8.30;99.90;;;;;;4876581;29;20049;-74
2023/03/29 09:02:03;;;;;;;0.20;0.20;;;8.70;99.90;;;;;;4858346;29;20056;-74
2023/03/29 09:04:33;;;;;;;0.15;0.15;;;8.90;99.90;;;;;;4848506;29;20120;-73
2023/03/29 09:07:01;;;;;;;0.10;0.10;;;9.10;99.90;;;;;;4871305;29;20707;-73
2023/03/29 09:09:37;;;;;;;0.10;0.10;;;9.10;99.90;;;;;;4852090;29;20043;-75
2023/03/29 09:12:28;;;;;;;0.10;0.10;;;9.10;99.90;;;;;;4864358;29;20045;-75
2023/03/29 09:15:31;;;;;;;0.10;0.10;;;9.10;99.90;;;;;;4869377;29;20073;-75
2023/03/29 09:18:06;;;;;;;0.20;0.20;;;9.20;99.90;;;;;;4850118;29;20060;-74
2023/03/29 09:20:54;;;;;;;0.20;0.20;;;9.30;99.90;;;;;;4870371;29;20059;-74
2023/03/29 09:23:47;;;;;;;0.10;0.10;;;9.40;99.90;;;;;;4892840;29;20029;-74
2023/03/29 09:26:28;;;;;;;0.10;0.10;;;9.40;99.90;;;;;;4868378;29;20148;-75
2023/03/29 09:29:13;;;;;;;;;;;9.50;99.90;;;;;;4866750;29;20076;-76
2023/03/29 09:31:43;;;;;;;0.10;0.10;;;9.60;99.90;;;;;;4855533;29;19924;-73
2023/03/29 09:34:37;;;;;;;0.20;0.20;;;9.60;99.90;;;;;;4866741;29;20515;-74
2023/03/29 09:37:20;;;;;;;0.10;0.10;;;9.70;99.90;;;;;;4860867;29;20226;-73
2023/03/29 09:39:46;;;;;;;0.10;0.10;;;9.80;99.90;;;;;;4864773;29;20060;-73
2023/03/29 09:42:14;;;;;;;0.10;0.10;;;9.80;99.90;;;;;;4874184;29;20482;-73
2023/03/29 09:44:51;;;;;;;0.20;0.20;;;9.80;99.90;;;;;;4857079;29;20143;-74
2023/03/29 09:47:34;;;;;;;0.10;0.10;;;9.80;99.90;;;;;;4842841;29;20041;-74
2023/03/29 09:50:30;;;;;;;0.20;0.20;;;9.90;99.90;;;;;;4846488;29;20041;-76
2023/03/29 09:52:56;;;;;;;0.10;0.10;;;10.00;99.90;;;;;;4856061;29;20052;-74
2023/03/29 09:55:26;;;;;;;0.10;0.10;;;10.00;99.90;;;;;;4860883;29;20045;-74
2023/03/29 09:57:52;;;;;;;0.13;0.13;;;10.10;99.90;;;;;;4868973;29;20041;-75
2023/03/29 10:00:18;;;;;;;0.10;0.10;;;10.20;99.90;;;;;;4862975;29;20064;-75
2023/03/29 10:02:56;;;;;;;0.10;0.10;;;10.20;99.90;;;;;;4855487;29;20045;-75
2023/03/29 10:05:25;;;;;;;0.20;0.20;;;10.20;99.90;;;;;;4856379;29;20080;-76
2023/03/29 10:07:53;;;;;;;0.10;0.10;;;10.30;99.90;;;;;;4862611;29;20052;-75
2023/03/29 10:10:27;;;;;;;0.10;0.10;;;10.30;99.90;;;;;;4876048;29;20108;-76
2023/03/29 10:12:58;;;;;;;0.10;0.10;;;10.30;99.90;;;;;;4850555;29;20057;-76
2023/03/29 10:15:27;;;;;;;0.10;0.10;;;10.40;99.90;;;;;;4851243;29;20041;-76
2023/03/29 10:18:02;;;;;;;0.17;0.17;;;10.40;99.90;;;;;;4872213;29;20080;-76
2023/03/29 10:20:28;;;;;;;0.10;0.10;;;10.50;99.90;;;;;;4859328;29;20044;-76
2023/03/29 10:22:57;;;;;;;0.20;0.20;;;10.60;99.90;;;;;;4853412;29;20542;-75
2023/03/29 10:25:30;;;;;;;0.10;0.10;;;10.50;99.90;;;;;;4844562;29;20105;-75
2023/03/29 10:28:19;;;;;;;0.20;0.20;;;10.60;99.90;;;;;;4848754;29;20462;-76
2023/03/29 10:30:53;;;;;;;0.10;0.10;;;10.60;99.90;;;;;;4854455;29;20049;-75
2023/03/29 10:33:22;;;;;;;0.10;0.10;;;10.60;99.90;;;;;;4860105;29;20055;-76
2023/03/29 10:35:49;;;;;;;0.20;0.20;;;10.60;99.90;;;;;;4858900;29;20071;-75
2023/03/29 10:38:21;;;;;;;0.10;0.10;;;10.60;99.90;;;;;;4855316;29;20044;-76
2023/03/29 10:40:52;;;;;;;0.13;0.13;;;10.70;99.90;;;;;;4860859;29;20447;-74
2023/03/29 10:43:37;;;;;;;0.20;0.20;;;10.80;99.90;;;;;;4867770;29;20037;-75
2023/03/29 10:46:11;;;;;;;0.10;0.10;;;10.80;99.90;;;;;;4846034;29;20057;-75
2023/03/29 10:48:38;;;;;;;0.10;0.10;;;10.80;99.90;;;;;;4870746;29;20322;-75
2023/03/29 10:51:06;;;;;;;0.10;0.10;;;10.90;99.90;;;;;;4879236;29;20049;-76
2023/03/29 10:53:36;;;;;;;0.10;0.10;;;10.90;99.90;;;;;;4878343;29;20044;-75
2023/03/29 10:56:26;;;;;;;0.10;0.10;;;11.00;99.90;;;;;;4880053;29;20047;-75
2023/03/29 10:59:16;;;;;;;0.20;0.20;;;11.10;99.90;;;;;;4874012;29;20560;-75
2023/03/29 11:01:51;;;;;;;0.10;0.10;;;11.20;99.90;;;;;;4862896;29;20321;-76
2023/03/29 11:04:42;;;;;;;0.10;0.10;;;11.20;99.90;;;;;;4861755;29;20053;-75
2023/03/29 11:07:30;;;;;;;0.10;0.10;;;11.30;99.90;;;;;;4887937;29;20085;-75
2023/03/29 11:10:30;;;;;;;0.13;0.13;;;11.40;99.90;;;;;;4887157;29;20104;-77
2023/03/29 11:13:39;;;;;;;0.10;0.10;;;11.60;99.90;;;;;;4856821;29;20476;-76
2023/03/29 11:16:30;;;;;;;0.10;0.10;;;11.70;99.90;;;;;;4851688;29;20127;-75
2023/03/29 11:19:17;;;;;;;0.20;0.20;;;11.80;99.90;;;;;;4879829;29;20057;-75
2023/03/29 11:22:21;;;;;;;0.10;0.10;;;12.10;99.90;;;;;;4845654;29;20125;-76
2023/03/29 11:25:05;;;;;;;0.10;0.10;;;12.30;99.90;;;;;;4820419;29;20053;-76
2023/03/29 11:27:49;;;;;;;0.10;0.10;;;12.60;99.90;;;;;;4840443;29;20077;-77
2023/03/29 11:30:29;;;;;;;0.10;0.10;;;12.80;99.90;;;;;;4843674;29;20049;-76
2023/03/29 11:33:23;;;;;;;0.20;0.20;;;12.90;99.90;;;;;;4834458;29;20077;-76
2023/03/29 11:36:15;;;;;;;0.20;0.20;;;13.10;99.90;;;;;;4842533;29;20126;-75
2023/03/29 11:38:55;;;;;;;0.10;0.10;;;13.20;99.90;;;;;;4844046;29;20045;-76
2023/03/29 11:41:29;;;;;;;0.15;0.15;;;13.20;99.90;;;;;;4840395;29;20109;-75
2023/03/29 11:44:05;;;;;;;0.20;0.20;;;13.40;99.90;;;;;;4844269;29;20089;-76
2023/03/29 11:46:36;;;;;;;0.10;0.10;;;13.40;99.90;;;;;;4842990;29;20049;-76
2023/03/29 11:49:30;;;;;;;0.10;0.10;;;13.50;99.90;;;;;;4842959;29;20053;-76
2023/03/29 11:52:05;;;;;;;0.10;0.10;;;13.50;99.90;;;;;;4839122;29;20395;-76
2023/03/29 11:54:54;;;;;;;0.10;0.10;;;13.50;99.90;;;;;;4840733;29;20354;-76
2023/03/29 11:57:57;;;;;;;0.10;0.10;;;13.50;99.90;;;;;;4852794;29;20297;-76
2023/03/29 12:00:41;;;;;;;0.10;0.10;;;13.50;99.90;;;;;;4837566;29;20137;-76
2023/03/29 12:03:35;;;;;;;0.15;0.15;;;13.50;99.90;;;;;;4839606;29;20048;-76
2023/03/29 12:06:14;;;;;;;0.20;0.20;;;13.50;99.90;;;;;;4855203;29;20463;-76
2023/03/29 12:08:49;;;;;;;0.13;0.13;;;13.60;99.90;;;;;;4869555;29;20060;-76
2023/03/29 12:11:23;;;;;;;0.10;0.10;;;13.60;99.90;;;;;;4859517;29;20033;-74
2023/03/29 12:14:09;;;;;;;0.10;0.10;;;13.50;99.90;;;;;;4841447;29;20117;-75
2023/03/29 12:16:45;;;;;;;0.13;0.13;;;13.60;99.90;;;;;;4838416;29;20157;-74
2023/03/29 12:19:26;;;;;;;0.10;0.10;;;13.70;99.90;;;;;;4842777;29;20407;-74
2023/03/29 12:21:56;;;;;;;0.20;0.20;;;13.80;99.90;;;;;;4840753;29;20069;-75
2023/03/29 12:24:24;;;;;;;0.10;0.10;;;14.00;99.90;;;;;;4848939;29;20073;-75
2023/03/29 12:27:10;;;;;;;0.10;0.10;;;14.10;99.90;;;;;;4873124;29;20148;-75
2023/03/29 12:29:56;;;;;;;0.10;0.10;;;14.30;99.90;;;;;;4843331;29;20060;-76
2023/03/29 12:32:57;;;;;;;0.10;0.10;;;14.50;99.90;;;;;;4843970;29;20443;-76
2023/03/29 12:35:46;;;;;;;0.10;0.10;;;14.70;99.90;;;;;;4832454;29;20068;-76
2023/03/29 12:38:25;;;;;;;0.10;0.10;;;14.80;99.90;;;;;;4854539;29;20041;-76
2023/03/29 12:41:00;;;;;;;0.10;0.10;;;14.90;99.90;;;;;;4869521;29;20057;-75
2023/03/29 12:43:37;;;;;;;0.17;0.17;;;14.90;99.90;;;;;;4875247;29;20051;-76
2023/03/29 12:46:18;;;;;;;0.10;0.10;;;14.90;99.90;;;;;;4858711;29;20117;-76
2023/03/29 12:48:48;;;;;;;0.10;0.10;;;14.70;99.90;;;;;;4884561;29;20059;-75
2023/03/29 12:51:35;;;;;;;0.10;0.10;;;14.80;99.90;;;;;;4881950;29;20033;-77
2023/03/29 12:54:21;;;;;;;0.15;0.15;;;14.70;99.90;;;;;;4868456;29;20109;-76
2023/03/29 12:56:59;;;;;;;0.10;0.10;;;14.60;99.90;;;;;;4858359;29;20448;-77
2023/03/29 12:59:36;;;;;;;0.20;0.20;;;14.60;99.90;;;;;;4860556;29;20056;-76
2023/03/29 13:02:22;;;;;;;0.10;0.10;;;14.60;99.90;;;;;;4859464;29;20045;-76
2023/03/29 13:04:57;;;;;;;0.20;0.20;;;14.50;99.90;;;;;;5149536;27;20961;-76
2023/03/29 13:07:25;;;;;;;0.10;0.10;;;14.50;99.90;;;;;;5151754;27;20106;-76
2023/03/29 13:09:56;;;;;;;0.10;0.10;;;14.40;99.90;;;;;;5148658;27;20047;-76
2023/03/29 13:12:27;;;;;;;0.10;0.10;;;14.40;99.90;;;;;;5147471;27;20125;-76
2023/03/29 13:14:59;;;;;;;0.10;0.10;;;14.30;99.90;;;;;;5148646;27;20035;-76
2023/03/29 13:17:46;;;;;;;0.10;0.10;;;14.30;99.90;;;;;;5149154;27;20055;-76
2023/03/29 13:20:45;;;;;;;1.17;0.47;;;14.30;99.90;;;;;;5146820;27;20104;-76
2023/03/29 13:23:29;;;;;;;;;;;14.30;99.90;;;;;;5101488;27;20486;-76
2023/03/29 13:26:32;;;;;;;0.20;0.20;;;14.30;99.90;;;;;;5128607;28;19919;-75
2023/03/29 13:29:17;;;;;;;0.10;0.10;;;14.20;99.90;;;;;;5137911;27;20103;-75
2023/03/29 13:31:58;;;;;;;0.10;0.10;;;14.20;99.90;;;;;;5150343;27;20035;-77
2023/03/29 13:34:27;;;;;;;0.20;0.20;;;14.20;99.90;;;;;;5145885;27;20077;-76
2023/03/29 13:37:07;;;;;;;0.10;0.10;;;14.10;99.90;;;;;;5143907;27;20082;-76
2023/03/29 13:39:39;;;;;;;0.10;0.10;;;14.10;99.90;;;;;;5146609;27;20125;-75
2023/03/29 13:42:18;;;;;;;0.13;0.13;;;14.10;99.90;;;;;;5130000;27;20090;-76
2023/03/29 13:44:47;;;;;;;0.10;0.10;;;14.10;99.90;;;;;;5132096;27;20130;-77
2023/03/29 13:47:32;;;;;;;0.20;0.20;;;14.10;99.90;;;;;;5148737;27;20143;-76
2023/03/29 13:50:09;;;;;;;0.10;0.10;;;14.10;99.90;;;;;;5147970;27;20049;-77
2023/03/29 13:52:46;;;;;;;0.13;0.13;;;14.10;99.90;;;;;;5147605;27;20047;-76
2023/03/29 13:55:31;;;;;;;;;;;14.10;99.90;;;;;;5129313;27;20051;-75
2023/03/29 13:58:19;;;;;;;0.20;0.20;;;14.20;99.90;;;;;;5145610;27;20010;-76
2023/03/29 14:01:11;;;;;;;0.10;0.10;;;14.30;99.90;;;;;;5148179;27;20043;-75
2023/03/29 14:03:43;;;;;;;0.20;0.20;;;14.30;99.90;;;;;;5141041;27;20051;-75
2023/03/29 14:06:16;;;;;;;0.20;0.20;;;14.30;99.90;;;;;;5132412;27;20055;-76
2023/03/29 14:08:43;;;;;;;0.10;0.10;;;14.30;99.90;;;;;;5144308;27;20446;-75
2023/03/29 14:11:30;;;;;;;0.10;0.10;;;14.30;99.90;;;;;;5169360;27;20129;-74
2023/03/29 14:14:02;;;;;;;0.20;0.20;;;14.30;99.90;;;;;;5147847;27;20047;-75
2023/03/29 14:16:34;;;;;;;0.10;0.10;;;14.40;99.90;;;;;;5136789;27;20032;-76
2023/03/29 14:19:16;;;;;;;0.20;0.20;;;14.40;99.90;;;;;;5133731;27;20039;-76
2023/03/29 14:21:43;;;;;;;0.10;0.10;;;14.60;99.90;;;;;;5133009;27;20045;-75
2023/03/29 14:24:19;;;;;;;0.10;0.10;;;14.80;99.90;;;;;;5128461;27;20031;-75
2023/03/29 14:26:57;;;;;;;0.10;0.10;;;15.10;99.90;;;;;;5127547;27;20677;-75
2023/03/29 14:29:29;;;;;;;0.10;0.10;;;;;;;;;;5136910;27;20043;-76
2023/03/29 14:32:11;;;;;;;0.10;0.10;;;;;;;;;;5137113;27;20035;-76